Time;durP1;ratioP1;P1;durP2;ratioP2;P2;SDS_P1;SDS_P2;PMS_P1;PMS_P2;Temp;Humidity;BMP_temperature;BMP_pressure;BME280_temperature;BME280_humidity;BME280_pressure;Samples;Min_cycle;Max_cycle;Signal;HPM_P1;HPM_P2
2023/08/06 00:00:27;;;;;;;2.90;2.70;;;16.80;99.90;;;;;;4992830;28;20523;-63
2023/08/06 00:02:55;;;;;;;3.47;3.23;;;16.80;99.90;;;;;;4991029;28;20491;-63
2023/08/06 00:05:23;;;;;;;3.20;3.00;;;16.80;99.90;;;;;;4992279;28;20500;-63
2023/08/06 00:07:52;;;;;;;3.40;3.10;;;16.70;99.90;;;;;;4991652;28;20559;-63
2023/08/06 00:10:21;;;;;;;3.07;2.80;;;16.60;99.90;;;;;;5000060;28;20587;-64
2023/08/06 00:12:49;;;;;;;3.10;2.90;;;16.60;99.90;;;;;;4996192;28;20591;-63
2023/08/06 00:15:17;;;;;;;3.30;3.00;;;16.60;99.90;;;;;;4995215;28;20677;-63
2023/08/06 00:17:45;;;;;;;3.87;3.10;;;16.50;99.90;;;;;;4998459;28;20513;-63
2023/08/06 00:20:13;;;;;;;3.60;3.30;;;16.50;99.90;;;;;;4998810;28;20488;-63
2023/08/06 00:22:41;;;;;;;3.93;3.30;;;16.50;99.90;;;;;;4996807;28;20583;-63
2023/08/06 00:25:09;;;;;;;3.77;3.50;;;16.40;99.90;;;;;;4997503;28;20488;-63
2023/08/06 00:27:39;;;;;;;3.00;2.80;;;16.40;99.90;;;;;;4995400;28;20534;-63
2023/08/06 00:30:08;;;;;;;3.63;3.30;;;16.40;99.90;;;;;;4995899;28;20581;-63
2023/08/06 00:32:36;;;;;;;3.40;3.10;;;16.30;99.90;;;;;;4999603;28;20497;-63
2023/08/06 00:35:04;;;;;;;3.20;2.90;;;16.30;99.90;;;;;;5004337;28;20476;-63
2023/08/06 00:37:32;;;;;;;3.63;3.33;;;16.20;99.90;;;;;;5000319;28;20522;-63
2023/08/06 00:40:00;;;;;;;3.60;3.30;;;16.20;99.90;;;;;;5001515;28;20915;-63
2023/08/06 00:42:28;;;;;;;3.60;3.30;;;16.20;99.90;;;;;;5000868;28;20571;-63
2023/08/06 00:44:57;;;;;;;3.40;3.20;;;16.20;99.90;;;;;;4994707;28;20500;-63
2023/08/06 00:47:26;;;;;;;4.00;3.60;;;16.20;99.90;;;;;;5000442;28;21084;-63
2023/08/06 00:49:54;;;;;;;4.67;4.27;;;16.20;99.90;;;;;;5004494;28;20538;-63
2023/08/06 00:52:23;;;;;;;4.70;4.40;;;16.20;99.90;;;;;;5001534;28;20935;-63
2023/08/06 00:54:51;;;;;;;5.13;4.73;;;16.20;99.90;;;;;;5004161;28;20896;-63
2023/08/06 00:57:19;;;;;;;5.37;4.87;;;16.20;99.90;;;;;;4994036;28;20566;-63
2023/08/06 00:59:48;;;;;;;5.33;4.93;;;16.20;99.90;;;;;;4994319;28;20481;-63
2023/08/06 01:02:17;;;;;;;5.20;4.80;;;16.20;99.90;;;;;;4991975;28;20496;-63
2023/08/06 01:04:45;;;;;;;5.70;5.20;;;16.20;99.90;;;;;;4993872;28;20581;-63
2023/08/06 01:07:22;;;;;;;5.53;5.13;;;16.10;99.90;;;;;;5002474;28;20484;-63
2023/08/06 01:10:03;;;;;;;4.87;4.47;;;16.10;99.90;;;;;;5002171;28;21060;-63
2023/08/06 01:12:39;;;;;;;5.37;4.97;;;16.10;99.90;;;;;;5004074;28;20526;-63
2023/08/06 01:15:13;;;;;;;5.30;4.90;;;16.10;99.90;;;;;;5003934;28;20471;-63
2023/08/06 01:17:43;;;;;;;5.33;4.83;;;16.00;99.90;;;;;;5004190;28;20496;-63
2023/08/06 01:20:11;;;;;;;5.67;5.17;;;16.00;99.90;;;;;;5000314;28;20487;-63
2023/08/06 01:22:41;;;;;;;5.37;5.00;;;16.00;99.90;;;;;;5002447;28;21094;-63
2023/08/06 01:25:09;;;;;;;5.23;4.83;;;16.00;99.90;;;;;;5000511;28;20852;-63
2023/08/06 01:27:44;;;;;;;5.30;4.83;;;16.00;99.90;;;;;;4996554;28;20614;-63
2023/08/06 01:30:16;;;;;;;4.70;4.30;;;16.00;99.90;;;;;;5001518;28;21122;-63
2023/08/06 01:32:49;;;;;;;5.40;4.97;;;16.00;99.90;;;;;;5006449;28;20616;-63
2023/08/06 01:35:20;;;;;;;4.53;4.23;;;16.00;99.90;;;;;;5005136;28;21116;-65
2023/08/06 01:37:49;;;;;;;4.73;4.33;;;16.00;99.90;;;;;;4999415;28;20460;-63
2023/08/06 01:40:18;;;;;;;4.93;4.53;;;16.00;99.90;;;;;;5002037;28;20575;-63
2023/08/06 01:42:45;;;;;;;5.67;5.10;;;16.00;99.90;;;;;;5003232;28;20504;-63
2023/08/06 01:45:14;;;;;;;5.77;5.23;;;15.90;99.90;;;;;;5000926;28;20605;-63
2023/08/06 01:47:42;;;;;;;5.30;4.80;;;15.90;99.90;;;;;;5003447;28;20554;-64
2023/08/06 01:50:10;;;;;;;5.67;5.17;;;15.90;99.90;;;;;;5003417;28;20476;-63
2023/08/06 01:52:38;;;;;;;6.13;5.60;;;15.90;99.90;;;;;;5004103;28;20578;-63
2023/08/06 01:55:08;;;;;;;5.07;4.70;;;15.90;99.90;;;;;;5000530;28;20472;-63
2023/08/06 01:57:36;;;;;;;6.10;5.50;;;15.90;99.90;;;;;;4997134;28;20484;-63
2023/08/06 02:00:04;;;;;;;5.97;5.47;;;15.90;99.90;;;;;;4997826;28;20479;-63
2023/08/06 02:02:33;;;;;;;6.10;5.10;;;15.90;99.90;;;;;;5003225;28;20546;-63
2023/08/06 02:05:01;;;;;;;5.87;5.37;;;15.80;99.90;;;;;;5001317;28;20500;-63
2023/08/06 02:07:31;;;;;;;5.70;5.30;;;15.90;99.90;;;;;;5002256;28;20992;-64
2023/08/06 02:09:59;;;;;;;5.37;4.87;;;15.80;99.90;;;;;;4998536;28;20469;-63
2023/08/06 02:12:28;;;;;;;5.20;4.80;;;15.90;99.90;;;;;;5013852;28;20519;-63
2023/08/06 02:14:56;;;;;;;5.10;4.70;;;15.80;99.90;;;;;;5018302;28;20468;-63
2023/08/06 02:17:24;;;;;;;5.43;5.03;;;15.80;99.90;;;;;;5002018;28;20568;-63
2023/08/06 02:19:52;;;;;;;5.40;4.90;;;15.90;99.90;;;;;;5002730;28;20473;-63
2023/08/06 02:22:20;;;;;;;5.23;4.77;;;15.90;99.90;;;;;;5004906;28;20488;-63
2023/08/06 02:24:50;;;;;;;6.10;5.60;;;15.90;99.90;;;;;;5005426;28;20468;-63
2023/08/06 02:27:18;;;;;;;5.60;5.10;;;15.90;99.90;;;;;;5000457;28;20476;-63
2023/08/06 02:29:47;;;;;;;6.60;5.00;;;15.90;99.90;;;;;;4992210;28;20472;-66
2023/08/06 02:32:15;;;;;;;6.87;5.20;;;15.80;99.90;;;;;;4996770;28;20866;-63
2023/08/06 02:34:43;;;;;;;5.47;5.00;;;15.90;99.90;;;;;;5004173;28;20476;-63
2023/08/06 02:37:11;;;;;;;5.90;5.40;;;15.90;99.90;;;;;;5004778;28;20567;-63
2023/08/06 02:39:40;;;;;;;5.57;5.17;;;15.80;99.90;;;;;;4999298;28;20757;-63
2023/08/06 02:42:08;;;;;;;6.00;5.50;;;15.80;99.90;;;;;;4997612;28;20502;-63
2023/08/06 02:44:36;;;;;;;6.10;5.50;;;15.80;99.90;;;;;;4995674;28;20480;-63
2023/08/06 02:47:06;;;;;;;5.77;5.27;;;15.80;99.90;;;;;;4998032;28;20585;-63
2023/08/06 02:49:34;;;;;;;6.10;5.60;;;15.80;99.90;;;;;;4997867;28;21162;-63
2023/08/06 02:52:02;;;;;;;5.83;5.33;;;15.70;99.90;;;;;;5000494;28;20492;-63
2023/08/06 02:54:31;;;;;;;5.57;5.07;;;15.80;99.90;;;;;;5001304;28;20499;-64
2023/08/06 02:56:59;;;;;;;5.63;5.10;;;15.70;99.90;;;;;;5003217;28;21060;-63
2023/08/06 02:59:27;;;;;;;5.53;5.03;;;15.70;99.90;;;;;;5000130;28;20576;-63
2023/08/06 03:01:55;;;;;;;5.33;4.93;;;15.70;99.90;;;;;;5004558;28;20484;-63
2023/08/06 03:04:24;;;;;;;5.20;4.80;;;15.80;99.90;;;;;;5004149;28;20472;-63
2023/08/06 03:06:53;;;;;;;5.20;4.80;;;15.70;99.90;;;;;;5004477;28;20496;-63
2023/08/06 03:09:21;;;;;;;5.17;4.83;;;15.70;99.90;;;;;;5005481;28;20683;-63
2023/08/06 03:11:49;;;;;;;5.53;5.00;;;15.70;99.90;;;;;;5001714;28;20492;-63
2023/08/06 03:14:17;;;;;;;5.73;5.30;;;15.70;99.90;;;;;;5006302;28;20515;-63
2023/08/06 03:16:45;;;;;;;5.50;5.10;;;15.60;99.90;;;;;;5003591;28;21097;-63
2023/08/06 03:19:13;;;;;;;5.70;5.20;;;15.70;99.90;;;;;;5003885;28;20483;-63
2023/08/06 03:21:42;;;;;;;5.73;5.33;;;15.70;99.90;;;;;;5002054;28;20515;-63
2023/08/06 03:24:10;;;;;;;5.83;5.30;;;15.70;99.90;;;;;;5003501;28;20503;-62
2023/08/06 03:26:38;;;;;;;5.40;4.90;;;15.60;99.90;;;;;;5004890;28;20886;-63
2023/08/06 03:29:06;;;;;;;6.00;4.67;;;15.70;99.90;;;;;;5002763;28;20503;-63
2023/08/06 03:31:34;;;;;;;6.13;5.63;;;15.60;99.90;;;;;;5004094;28;20524;-63
2023/08/06 03:34:02;;;;;;;5.70;5.30;;;15.60;99.90;;;;;;4998608;28;20480;-63
2023/08/06 03:36:30;;;;;;;6.60;4.97;;;15.50;99.90;;;;;;5001727;28;20471;-63
2023/08/06 03:39:00;;;;;;;5.77;5.17;;;15.50;99.90;;;;;;5001809;28;20469;-63
2023/08/06 03:41:28;;;;;;;5.70;5.20;;;15.50;99.90;;;;;;4995368;28;20492;-63
2023/08/06 03:43:56;;;;;;;5.43;4.93;;;15.50;99.90;;;;;;4997914;28;20531;-63
2023/08/06 03:46:24;;;;;;;5.37;4.90;;;15.50;99.90;;;;;;4991046;28;20496;-63
2023/08/06 03:48:52;;;;;;;5.60;5.10;;;15.50;99.90;;;;;;4989967;28;20563;-63
2023/08/06 03:51:20;;;;;;;5.30;4.80;;;15.50;99.90;;;;;;5000767;28;20488;-63
2023/08/06 03:53:48;;;;;;;5.93;5.37;;;15.50;99.90;;;;;;4998479;28;20946;-63
2023/08/06 03:56:18;;;;;;;5.83;5.43;;;15.50;99.90;;;;;;4996841;28;20468;-62
2023/08/06 03:58:46;;;;;;;5.67;4.90;;;15.50;99.90;;;;;;4998523;28;20570;-63
2023/08/06 04:01:14;;;;;;;5.37;4.97;;;15.50;99.90;;;;;;5001583;28;20539;-63
2023/08/06 04:03:42;;;;;;;5.57;5.07;;;15.40;99.90;;;;;;4997390;28;20488;-63
2023/08/06 04:06:10;;;;;;;5.67;5.23;;;15.40;99.90;;;;;;4999395;28;21177;-63
2023/08/06 04:08:38;;;;;;;5.90;5.30;;;15.40;99.90;;;;;;4998720;28;21011;-63
2023/08/06 04:11:06;;;;;;;6.00;5.50;;;15.50;99.90;;;;;;5000106;28;20587;-63
2023/08/06 04:13:35;;;;;;;5.80;5.30;;;15.40;99.90;;;;;;4999608;28;20586;-63
2023/08/06 04:16:03;;;;;;;5.53;5.07;;;15.50;99.90;;;;;;5001537;28;20969;-63
2023/08/06 04:18:31;;;;;;;5.37;4.87;;;15.50;99.90;;;;;;5002344;28;20487;-63
2023/08/06 04:20:59;;;;;;;6.50;5.10;;;15.40;99.90;;;;;;5001264;28;21038;-63
2023/08/06 04:23:27;;;;;;;5.87;5.30;;;15.50;99.90;;;;;;4996314;28;20993;-63
2023/08/06 04:25:57;;;;;;;5.77;5.27;;;15.40;99.90;;;;;;5000389;28;20552;-63
2023/08/06 04:28:25;;;;;;;5.37;4.87;;;15.40;99.90;;;;;;4995330;28;20618;-63
2023/08/06 04:30:55;;;;;;;5.03;4.63;;;15.40;99.90;;;;;;4996851;28;20492;-63
2023/08/06 04:33:23;;;;;;;5.37;4.87;;;15.40;99.90;;;;;;5002141;28;20511;-63
2023/08/06 04:35:55;;;;;;;6.00;5.50;;;15.40;99.90;;;;;;5004316;28;20468;-63
2023/08/06 04:38:24;;;;;;;5.90;5.40;;;15.40;99.90;;;;;;5004505;28;20657;-63
2023/08/06 04:40:53;;;;;;;6.33;5.30;;;15.40;99.90;;;;;;5002325;28;20578;-63
2023/08/06 04:43:21;;;;;;;6.43;5.73;;;15.30;99.90;;;;;;5002903;28;20575;-63
2023/08/06 04:45:49;;;;;;;6.20;5.60;;;15.30;99.90;;;;;;5017208;28;20569;-63
2023/08/06 04:48:18;;;;;;;8.57;5.63;;;15.30;99.90;;;;;;5024298;28;20498;-63
2023/08/06 04:50:47;;;;;;;6.67;5.97;;;15.30;99.90;;;;;;5008466;28;20700;-63
2023/08/06 04:53:15;;;;;;;6.07;5.50;;;15.30;99.90;;;;;;5004339;28;20488;-63
2023/08/06 04:55:43;;;;;;;6.37;5.87;;;15.30;99.90;;;;;;5004298;28;20486;-63
2023/08/06 04:58:12;;;;;;;5.77;5.17;;;15.30;99.90;;;;;;4999760;28;20475;-63
2023/08/06 05:00:40;;;;;;;7.00;5.73;;;15.30;99.90;;;;;;5006563;28;20492;-63
2023/08/06 05:03:08;;;;;;;5.90;5.40;;;15.30;99.90;;;;;;5005115;28;20579;-63
2023/08/06 05:05:37;;;;;;;6.73;6.03;;;15.30;99.90;;;;;;5000795;28;20476;-63
2023/08/06 05:08:05;;;;;;;6.40;5.80;;;15.30;99.90;;;;;;5001430;28;20882;-63
2023/08/06 05:10:33;;;;;;;6.40;5.80;;;15.30;99.90;;;;;;5003154;28;21090;-63
2023/08/06 05:13:01;;;;;;;6.17;5.63;;;15.30;99.90;;;;;;5002731;28;21304;-63
2023/08/06 05:15:29;;;;;;;5.90;5.40;;;15.30;99.90;;;;;;5004906;28;20997;-63
2023/08/06 05:17:57;;;;;;;5.57;5.07;;;15.30;99.90;;;;;;5002715;28;20559;-63
2023/08/06 05:20:25;;;;;;;7.10;6.37;;;15.30;99.90;;;;;;5004802;28;20533;-63
2023/08/06 05:22:54;;;;;;;6.13;5.63;;;15.30;99.90;;;;;;5002570;28;20868;-63
2023/08/06 05:25:22;;;;;;;6.23;5.57;;;15.30;99.90;;;;;;5006038;28;20467;-64
2023/08/06 05:27:50;;;;;;;6.73;6.13;;;15.30;99.90;;;;;;5004681;28;20841;-63
2023/08/06 05:30:18;;;;;;;8.03;6.13;;;15.30;99.90;;;;;;5001613;28;20836;-64
2023/08/06 05:32:46;;;;;;;7.60;6.27;;;15.30;99.90;;;;;;5001107;28;20588;-63
2023/08/06 05:35:14;;;;;;;9.13;6.00;;;15.30;99.90;;;;;;4999056;28;20496;-64
2023/08/06 05:37:42;;;;;;;6.70;6.10;;;15.30;99.90;;;;;;5001654;28;20472;-63
2023/08/06 05:40:12;;;;;;;6.93;5.53;;;15.30;99.90;;;;;;5004958;28;21168;-63
2023/08/06 05:42:40;;;;;;;7.20;6.17;;;15.40;99.90;;;;;;5002918;28;21079;-63
2023/08/06 05:45:09;;;;;;;6.67;5.67;;;15.30;99.90;;;;;;5001632;28;21868;-64
2023/08/06 05:47:37;;;;;;;6.50;5.90;;;15.30;99.90;;;;;;5002124;28;20575;-64
2023/08/06 05:50:07;;;;;;;7.70;6.13;;;15.30;99.90;;;;;;5001923;28;20484;-63
2023/08/06 05:52:35;;;;;;;8.30;6.50;;;15.30;99.90;;;;;;4999534;28;20546;-63
2023/08/06 05:55:03;;;;;;;6.87;6.20;;;15.30;99.90;;;;;;5004625;28;20981;-63
2023/08/06 05:57:32;;;;;;;7.23;6.63;;;15.40;99.90;;;;;;5002346;28;20496;-63
2023/08/06 06:00:00;;;;;;;7.10;6.40;;;15.40;99.90;;;;;;5001235;28;20559;-63
2023/08/06 06:02:28;;;;;;;6.70;6.10;;;15.50;99.90;;;;;;5000746;28;20503;-64
2023/08/06 06:04:56;;;;;;;6.97;6.23;;;15.40;99.90;;;;;;5001114;28;20622;-63
2023/08/06 06:07:25;;;;;;;7.10;6.40;;;15.50;99.90;;;;;;5002062;28;20496;-64
2023/08/06 06:09:53;;;;;;;6.50;5.90;;;15.50;99.90;;;;;;4997954;28;20474;-64
2023/08/06 06:12:22;;;;;;;7.10;6.50;;;15.50;99.90;;;;;;4994025;28;20490;-66
2023/08/06 06:14:51;;;;;;;7.57;6.77;;;15.50;99.90;;;;;;4999597;28;20471;-64
2023/08/06 06:17:19;;;;;;;7.63;6.87;;;15.60;99.90;;;;;;4988118;28;20472;-64
2023/08/06 06:19:46;;;;;;;7.83;6.90;;;15.60;99.90;;;;;;4997708;28;20474;-65
2023/08/06 06:22:15;;;;;;;7.17;6.50;;;15.60;99.90;;;;;;4996383;28;21315;-64
2023/08/06 06:24:43;;;;;;;7.30;6.63;;;15.60;99.90;;;;;;5001710;28;20481;-64
2023/08/06 06:27:11;;;;;;;7.00;6.40;;;15.60;99.90;;;;;;4999282;28;20563;-64
2023/08/06 06:29:39;;;;;;;6.80;6.20;;;15.60;99.90;;;;;;4996469;28;20484;-64
2023/08/06 06:32:09;;;;;;;7.80;7.00;;;15.60;99.90;;;;;;4983961;28;20519;-64
2023/08/06 06:34:37;;;;;;;8.20;6.60;;;15.60;99.90;;;;;;5000170;28;20472;-63
2023/08/06 06:37:05;;;;;;;7.40;6.70;;;15.60;99.90;;;;;;5001543;28;20475;-65
2023/08/06 06:39:34;;;;;;;8.13;7.17;;;15.70;99.90;;;;;;4998231;28;20547;-65
2023/08/06 06:42:02;;;;;;;7.10;6.47;;;15.70;99.90;;;;;;4997412;28;20516;-65
2023/08/06 06:44:30;;;;;;;6.90;6.20;;;15.70;99.90;;;;;;5001766;28;20528;-65
2023/08/06 06:46:58;;;;;;;8.60;7.20;;;15.80;99.90;;;;;;5007647;28;21045;-66
2023/08/06 06:49:27;;;;;;;10.57;7.57;;;15.80;99.90;;;;;;5009858;28;20575;-65
2023/08/06 06:51:55;;;;;;;8.27;6.57;;;15.80;99.90;;;;;;5009775;28;20847;-65
2023/08/06 06:54:23;;;;;;;7.47;6.80;;;15.90;99.90;;;;;;4996517;28;20531;-65
2023/08/06 06:56:51;;;;;;;7.93;7.10;;;16.00;99.90;;;;;;5002435;28;20473;-68
2023/08/06 06:59:19;;;;;;;8.20;6.50;;;16.00;99.90;;;;;;4998282;28;20556;-65
2023/08/06 07:01:47;;;;;;;7.80;6.80;;;16.00;99.90;;;;;;4996805;28;20494;-65
2023/08/06 07:04:15;;;;;;;7.23;6.23;;;16.10;99.90;;;;;;4987367;28;20500;-66
2023/08/06 07:06:44;;;;;;;7.30;6.60;;;16.10;99.90;;;;;;4985561;28;20476;-65
2023/08/06 07:09:12;;;;;;;7.10;6.40;;;16.20;99.90;;;;;;4997176;28;21490;-66
2023/08/06 07:11:43;;;;;;;8.40;6.90;;;16.20;99.90;;;;;;4991230;28;21727;-65
2023/08/06 07:14:11;;;;;;;8.57;7.37;;;16.30;99.90;;;;;;4993057;28;20969;-69
2023/08/06 07:16:39;;;;;;;8.60;6.37;;;16.30;99.90;;;;;;4996605;28;20547;-71
2023/08/06 07:19:07;;;;;;;8.60;6.37;;;16.30;99.90;;;;;;4999533;28;20863;-72
2023/08/06 07:21:35;;;;;;;9.43;7.20;;;16.40;99.90;;;;;;5014647;28;20499;-65
2023/08/06 07:24:05;;;;;;;8.33;7.00;;;16.50;99.90;;;;;;5011919;28;20522;-64
2023/08/06 07:26:33;;;;;;;8.53;7.10;;;16.50;99.90;;;;;;4996184;28;20834;-65
2023/08/06 07:29:01;;;;;;;7.40;6.77;;;16.50;99.90;;;;;;4987956;28;20528;-65
2023/08/06 07:31:29;;;;;;;10.83;7.33;;;16.60;99.90;;;;;;4994415;28;21044;-64
2023/08/06 07:33:57;;;;;;;8.00;7.20;;;16.60;99.90;;;;;;4990865;28;20496;-64
2023/08/06 07:36:25;;;;;;;7.43;6.73;;;16.60;99.90;;;;;;4994188;28;20573;-64
2023/08/06 07:38:55;;;;;;;7.90;7.10;;;16.60;99.90;;;;;;4989647;28;20493;-63
2023/08/06 07:41:25;;;;;;;7.60;6.90;;;16.60;99.90;;;;;;4994369;28;20545;-63
2023/08/06 07:43:53;;;;;;;8.10;7.30;;;16.70;99.90;;;;;;4995569;28;20512;-63
2023/08/06 07:46:21;;;;;;;8.10;6.97;;;16.80;99.90;;;;;;4996028;28;21055;-63
2023/08/06 07:48:49;;;;;;;7.30;6.70;;;16.90;99.90;;;;;;4994762;28;20493;-69
2023/08/06 07:51:17;;;;;;;7.73;7.03;;;16.90;99.90;;;;;;4992482;28;20587;-63
2023/08/06 07:53:45;;;;;;;8.23;7.43;;;16.90;99.90;;;;;;4986863;28;21824;-63
2023/08/06 07:56:13;;;;;;;8.37;7.67;;;16.90;99.90;;;;;;4987964;28;20476;-64
2023/08/06 07:58:43;;;;;;;7.57;6.87;;;16.90;99.90;;;;;;4970046;28;20469;-64
2023/08/06 08:01:11;;;;;;;8.13;7.33;;;16.90;99.90;;;;;;4984000;28;20498;-63
2023/08/06 08:03:39;;;;;;;7.60;6.90;;;17.00;99.90;;;;;;4982007;28;20500;-63
2023/08/06 08:06:07;;;;;;;7.50;6.60;;;17.00;99.90;;;;;;4988486;28;20483;-64
2023/08/06 08:08:38;;;;;;;8.03;7.20;;;17.10;99.90;;;;;;4988126;28;20502;-64
2023/08/06 08:11:07;;;;;;;6.93;6.23;;;17.10;99.90;;;;;;4985518;28;21125;-65
2023/08/06 08:13:35;;;;;;;9.60;7.23;;;17.20;99.90;;;;;;4984753;28;20586;-65
2023/08/06 08:16:04;;;;;;;7.83;7.07;;;17.10;99.90;;;;;;4977065;28;20850;-65
2023/08/06 08:18:32;;;;;;;7.57;6.70;;;17.10;99.90;;;;;;4983274;28;20559;-65
2023/08/06 08:21:00;;;;;;;9.67;7.60;;;17.20;99.90;;;;;;4967685;28;20522;-65
2023/08/06 08:23:31;;;;;;;8.00;7.30;;;17.20;99.90;;;;;;4965408;28;20575;-65
2023/08/06 08:25:59;;;;;;;7.83;7.03;;;17.20;99.90;;;;;;4971123;28;20480;-64
2023/08/06 08:28:27;;;;;;;7.80;7.20;;;17.20;99.90;;;;;;4971800;28;20861;-65
2023/08/06 08:30:55;;;;;;;8.27;7.50;;;17.20;99.90;;;;;;4969712;28;20496;-65
2023/08/06 08:33:24;;;;;;;10.10;7.30;;;17.30;99.90;;;;;;4969521;28;20492;-65
2023/08/06 08:35:52;;;;;;;9.00;8.10;;;17.20;99.90;;;;;;4972034;28;20476;-65
2023/08/06 08:38:20;;;;;;;8.50;7.70;;;17.20;99.90;;;;;;4966202;28;20475;-65
2023/08/06 08:40:54;;;;;;;8.37;7.10;;;17.30;99.90;;;;;;4966420;28;20515;-63
2023/08/06 08:43:23;;;;;;;10.90;7.90;;;17.40;99.90;;;;;;4984284;28;20477;-60
2023/08/06 08:45:54;;;;;;;8.23;7.40;;;17.40;99.90;;;;;;4987704;28;20473;-60
2023/08/06 08:48:24;;;;;;;8.50;7.70;;;17.50;99.90;;;;;;4983289;28;20546;-62
2023/08/06 08:50:52;;;;;;;7.80;7.10;;;17.50;99.90;;;;;;4979079;28;20488;-63
2023/08/06 08:53:22;;;;;;;7.17;6.57;;;17.50;99.90;;;;;;4975380;28;20488;-63
2023/08/06 08:55:51;;;;;;;8.17;7.37;;;17.40;99.90;;;;;;4990770;28;20570;-64
2023/08/06 08:58:19;;;;;;;8.23;7.40;;;17.40;99.90;;;;;;4967812;28;22327;-63
2023/08/06 09:00:48;;;;;;;9.53;7.77;;;17.50;99.90;;;;;;4978238;28;21086;-63
2023/08/06 09:03:18;;;;;;;9.07;8.00;;;17.50;99.90;;;;;;4984094;28;21025;-65
2023/08/06 09:05:52;;;;;;;8.20;7.40;;;17.50;99.90;;;;;;4987307;28;20472;-63
2023/08/06 09:08:27;;;;;;;10.63;8.50;;;17.50;99.90;;;;;;4977576;28;20888;-64
2023/08/06 09:10:56;;;;;;;8.40;7.60;;;17.50;99.90;;;;;;4978050;28;20494;-63
2023/08/06 09:13:24;;;;;;;9.13;7.63;;;17.50;99.90;;;;;;4975514;28;20499;-62
2023/08/06 09:15:52;;;;;;;8.20;7.57;;;17.50;99.90;;;;;;4986570;28;20478;-63
2023/08/06 09:18:27;;;;;;;7.93;7.23;;;17.50;99.90;;;;;;4982073;28;20468;-63
2023/08/06 09:20:58;;;;;;;8.03;7.23;;;17.50;99.90;;;;;;4978916;28;20913;-63
2023/08/06 09:23:30;;;;;;;8.07;7.37;;;17.50;99.90;;;;;;4988833;28;20519;-64
2023/08/06 09:25:59;;;;;;;8.87;7.97;;;17.50;99.90;;;;;;4995536;28;20965;-63
2023/08/06 09:28:39;;;;;;;8.10;7.50;;;17.50;99.90;;;;;;4991454;28;20468;-64
2023/08/06 09:31:07;;;;;;;8.07;7.27;;;17.50;99.90;;;;;;4989551;28;20488;-67
2023/08/06 09:33:37;;;;;;;8.40;7.70;;;17.40;99.90;;;;;;4989921;28;20868;-64
2023/08/06 09:36:13;;;;;;;8.50;7.70;;;17.40;99.90;;;;;;4995487;28;20476;-64
2023/08/06 09:38:41;;;;;;;8.57;7.77;;;17.40;99.90;;;;;;4995141;28;20616;-64
2023/08/06 09:41:09;;;;;;;8.77;7.80;;;17.30;99.90;;;;;;4990550;28;20879;-64
2023/08/06 09:43:42;;;;;;;8.40;7.70;;;17.30;99.90;;;;;;4981702;28;20488;-64
2023/08/06 09:46:16;;;;;;;8.30;7.60;;;17.30;99.90;;;;;;4994676;28;20510;-65
2023/08/06 09:48:47;;;;;;;8.80;7.77;;;17.30;99.90;;;;;;4990416;28;21205;-64
2023/08/06 09:51:17;;;;;;;8.60;7.83;;;17.30;99.90;;;;;;4995621;28;20495;-64
2023/08/06 09:53:46;;;;;;;9.17;8.40;;;17.40;99.90;;;;;;4993754;28;20586;-63
2023/08/06 09:56:16;;;;;;;8.00;7.40;;;17.50;99.90;;;;;;4997504;28;21857;-64
2023/08/06 09:58:46;;;;;;;8.77;8.07;;;17.50;99.90;;;;;;5018258;28;20503;-63
2023/08/06 10:01:16;;;;;;;9.63;8.30;;;17.60;99.90;;;;;;4976840;28;21096;-65
2023/08/06 10:03:45;;;;;;;8.77;7.97;;;17.60;99.90;;;;;;4986884;28;20517;-65
2023/08/06 10:06:13;;;;;;;8.57;7.77;;;17.60;99.90;;;;;;4983908;28;20482;-64
2023/08/06 10:08:43;;;;;;;8.87;7.97;;;17.60;99.90;;;;;;4993111;28;21039;-64
2023/08/06 10:11:12;;;;;;;7.87;7.27;;;17.60;99.90;;;;;;4992795;28;20579;-64
2023/08/06 10:13:40;;;;;;;8.23;7.53;;;17.70;99.90;;;;;;4971981;28;20493;-63
2023/08/06 10:16:09;;;;;;;8.60;7.83;;;17.70;99.90;;;;;;4983490;28;20526;-63
2023/08/06 10:18:39;;;;;;;8.47;7.80;;;17.70;99.90;;;;;;4990651;28;20472;-63
2023/08/06 10:21:09;;;;;;;9.93;9.03;;;17.70;99.90;;;;;;4988034;28;20492;-63
2023/08/06 10:23:38;;;;;;;8.97;8.23;;;17.70;99.90;;;;;;4985454;28;21585;-63
2023/08/06 10:26:08;;;;;;;9.77;8.87;;;17.80;99.90;;;;;;4995140;28;20472;-64
2023/08/06 10:28:37;;;;;;;8.70;8.00;;;17.80;99.90;;;;;;4994246;28;20558;-64
2023/08/06 10:31:05;;;;;;;9.50;8.80;;;17.80;99.90;;;;;;4993768;28;20499;-63
2023/08/06 10:33:44;;;;;;;9.47;8.77;;;17.80;99.90;;;;;;4996532;28;20843;-64
2023/08/06 10:36:12;;;;;;;14.83;9.10;;;17.90;99.90;;;;;;4983090;28;20464;-64
2023/08/06 10:38:48;;;;;;;9.23;8.43;;;17.90;99.90;;;;;;4996831;28;20478;-64
2023/08/06 10:41:24;;;;;;;9.80;9.00;;;18.00;99.90;;;;;;4980664;28;20582;-65
2023/08/06 10:43:52;;;;;;;11.10;10.10;;;17.90;99.90;;;;;;4994370;28;20599;-65
2023/08/06 10:46:24;;;;;;;9.57;8.77;;;17.90;99.90;;;;;;4989128;28;21255;-65
2023/08/06 10:48:52;;;;;;;9.53;8.70;;;18.00;99.90;;;;;;4992312;28;20981;-64
2023/08/06 10:51:20;;;;;;;10.30;9.50;;;18.00;99.90;;;;;;4988344;28;20510;-65
2023/08/06 10:53:51;;;;;;;9.40;8.70;;;18.00;99.90;;;;;;4997480;28;20500;-64
2023/08/06 10:56:22;;;;;;;9.50;8.70;;;18.00;99.90;;;;;;4990963;28;20474;-65
2023/08/06 10:58:51;;;;;;;9.53;8.73;;;18.00;99.90;;;;;;4994440;28;21642;-64
2023/08/06 11:01:20;;;;;;;10.10;9.20;;;18.00;99.90;;;;;;4993650;28;20502;-64
2023/08/06 11:03:49;;;;;;;9.53;8.73;;;18.00;99.90;;;;;;4992987;28;20654;-64
2023/08/06 11:06:19;;;;;;;9.60;8.80;;;17.90;99.90;;;;;;4978580;28;21072;-64
2023/08/06 11:08:49;;;;;;;9.87;8.97;;;17.90;99.90;;;;;;4986217;28;20977;-69
2023/08/06 11:11:18;;;;;;;9.57;8.77;;;17.80;99.90;;;;;;4979554;28;22314;-69
2023/08/06 11:13:48;;;;;;;8.80;8.10;;;17.90;99.90;;;;;;4994168;28;20500;-69
2023/08/06 11:16:19;;;;;;;8.87;8.17;;;17.80;99.90;;;;;;4980471;28;21118;-69
2023/08/06 11:18:48;;;;;;;10.10;9.20;;;17.90;99.90;;;;;;4991195;28;20946;-69
2023/08/06 11:21:20;;;;;;;9.90;9.10;;;17.90;99.90;;;;;;4981388;28;21010;-65
2023/08/06 11:23:48;;;;;;;9.83;9.03;;;17.80;99.90;;;;;;4992555;28;21019;-70
2023/08/06 11:26:20;;;;;;;9.90;9.10;;;17.80;99.90;;;;;;4989280;28;20480;-70
2023/08/06 11:28:49;;;;;;;9.10;8.40;;;17.80;99.90;;;;;;4984422;28;20475;-73
2023/08/06 11:31:21;;;;;;;9.10;8.40;;;17.80;99.90;;;;;;4986596;28;20510;-65
2023/08/06 11:33:50;;;;;;;9.50;8.70;;;17.90;99.90;;;;;;4982548;28;20542;-73
2023/08/06 11:36:29;;;;;;;9.60;8.80;;;17.90;99.90;;;;;;4989474;28;21049;-74
2023/08/06 11:38:58;;;;;;;9.73;9.00;;;17.90;99.90;;;;;;4978177;28;20475;-71
2023/08/06 11:41:26;;;;;;;9.73;8.80;;;17.80;99.90;;;;;;4976423;28;20480;-68
2023/08/06 11:43:56;;;;;;;9.77;8.87;;;17.70;99.90;;;;;;4986090;28;20502;-68
2023/08/06 11:46:25;;;;;;;9.50;8.77;;;17.70;99.90;;;;;;4988062;28;20486;-70
2023/08/06 11:48:53;;;;;;;9.90;9.00;;;17.70;99.90;;;;;;4987565;28;20473;-70
2023/08/06 11:51:25;;;;;;;9.57;8.87;;;17.70;99.90;;;;;;4985751;28;20555;-70
2023/08/06 11:53:56;;;;;;;9.63;8.80;;;17.60;99.90;;;;;;4987710;28;20496;-68
2023/08/06 11:56:26;;;;;;;9.60;8.70;;;17.70;99.90;;;;;;4979447;28;20487;-71
2023/08/06 11:58:56;;;;;;;10.37;9.37;;;17.70;99.90;;;;;;4982582;28;20507;-69
2023/08/06 12:01:24;;;;;;;10.13;9.40;;;17.70;99.90;;;;;;4987633;28;20488;-70
2023/08/06 12:03:52;;;;;;;10.30;9.40;;;17.70;99.90;;;;;;4985668;28;20844;-69
2023/08/06 12:06:20;;;;;;;9.80;9.00;;;17.70;99.90;;;;;;4981965;28;20610;-67
2023/08/06 12:08:50;;;;;;;9.20;8.30;;;17.70;99.90;;;;;;4986491;28;20681;-66
2023/08/06 12:11:18;;;;;;;9.70;8.90;;;17.70;99.90;;;;;;4975372;28;20617;-67
2023/08/06 12:13:46;;;;;;;9.37;8.40;;;17.70;99.90;;;;;;4972716;28;20495;-67
2023/08/06 12:16:17;;;;;;;10.13;9.17;;;17.70;99.90;;;;;;4982454;28;21060;-69
2023/08/06 12:18:45;;;;;;;9.57;8.77;;;17.70;99.90;;;;;;4978015;28;20712;-68
2023/08/06 12:21:13;;;;;;;9.10;8.40;;;17.70;99.90;;;;;;4992093;28;20568;-68
2023/08/06 12:23:42;;;;;;;9.13;8.43;;;17.70;99.90;;;;;;4982282;28;21104;-70
2023/08/06 12:26:10;;;;;;;9.20;8.50;;;17.70;99.90;;;;;;4983251;28;20571;-70
2023/08/06 12:28:38;;;;;;;8.43;7.80;;;17.70;99.90;;;;;;4981432;28;21033;-75
2023/08/06 12:31:06;;;;;;;9.93;8.93;;;17.80;99.90;;;;;;4987914;28;20708;-73
2023/08/06 12:33:35;;;;;;;8.83;8.03;;;17.80;99.90;;;;;;4993738;28;20484;-68
2023/08/06 12:36:04;;;;;;;10.43;9.53;;;17.80;99.90;;;;;;4992004;28;20540;-68
2023/08/06 12:38:33;;;;;;;10.13;9.13;;;17.80;99.90;;;;;;4987882;28;20476;-67
2023/08/06 12:41:02;;;;;;;8.83;7.93;;;17.80;99.90;;;;;;4987279;28;20488;-65
2023/08/06 12:43:30;;;;;;;8.90;8.20;;;17.90;99.90;;;;;;4989283;28;20599;-68
2023/08/06 12:45:58;;;;;;;8.73;7.83;;;18.00;99.90;;;;;;4988413;28;20930;-71
2023/08/06 12:48:26;;;;;;;9.37;8.60;;;18.00;99.90;;;;;;4984346;28;20468;-68
2023/08/06 12:50:55;;;;;;;8.90;8.10;;;18.10;99.90;;;;;;4973216;28;20626;-69
2023/08/06 12:53:23;;;;;;;9.73;8.83;;;18.10;99.90;;;;;;4984879;28;21517;-69